Yoshino — JI3690 — position and weather

sailwx.info

Track history (hours):
 
Tides and Currents Weather Stations Pressure Air Temp Water Temp Dewpoint Dewpoint Depression Visibility Wind Speed Wind Dir Waves Ship Positions

Yoshino

Last reported at 2018-Apr-26 11:00 UTC. Time now 2018-Apr-26 11:14 UTC.
Position N 34°33' E 135°27'.

Length 38 m; draft 4 m.

Type: Tug. MMSI: 431301568.

Date/timePositionNaut miles runAvg speedWind from/ knotsBaromVisibWave heightAir tempDewpointWater temp
2018-Apr-26 11:00N 34°33' E 135°27'0 0.0
2018-Apr-26 10:30N 34°33' E 135°27'0 0.0
2018-Apr-26 10:00N 34°33' E 135°27'0 0.0
2018-Apr-26 09:30N 34°33' E 135°27'0 0.0
2018-Apr-26 09:00N 34°33' E 135°27'0 0.0
2018-Apr-26 08:30N 34°33' E 135°27'0 0.0
2018-Apr-26 08:00N 34°33' E 135°27'3 6.2
2018-Apr-26 07:30N 34°33' E 135°23'1 2.3
2018-Apr-26 07:00N 34°34' E 135°24'0 0.1
2018-Apr-26 06:31N 34°34' E 135°24'3 5.6
2018-Apr-26 06:00N 34°31' E 135°24'0 0.5
2018-Apr-26 05:30N 34°31' E 135°24'0 0.0
2018-Apr-26 05:00N 34°31' E 135°24'0 0.0
2018-Apr-26 04:31N 34°31' E 135°24'0 0.0
2018-Apr-26 04:00N 34°31' E 135°24'0 0.0
2018-Apr-26 03:30N 34°31' E 135°24'0 0.0
2018-Apr-26 03:00N 34°31' E 135°24'2 3.1
2018-Apr-26 02:30N 34°32' E 135°23'2 4.1
2018-Apr-26 02:00N 34°34' E 135°24'0 0.0
2018-Apr-26 01:30N 34°34' E 135°24'0 0.2
2018-Apr-26 01:01N 34°34' E 135°24'1 2.0
2018-Apr-26 00:30N 34°33' E 135°23'3 5.2
2018-Apr-26 00:00N 34°33' E 135°20'1 1.7
2018-Apr-25 23:30N 34°33' E 135°21'4 8.9
2018-Apr-25 23:00N 34°33' E 135°27'0 0.1
2018-Apr-25 22:30N 34°33' E 135°27'0 0.0
2018-Apr-25 22:00N 34°33' E 135°27'0 0.0
2018-Apr-25 21:30N 34°33' E 135°27'0 0.0
2018-Apr-25 21:00N 34°33' E 135°27'0 0.0
2018-Apr-25 20:30N 34°33' E 135°27'0 0.0
2018-Apr-25 20:00N 34°33' E 135°27'0 0.0
2018-Apr-25 19:30N 34°33' E 135°27'0 0.0
2018-Apr-25 19:00N 34°33' E 135°27'0 0.0
2018-Apr-25 18:30N 34°33' E 135°27'0 0.0
2018-Apr-25 18:00N 34°33' E 135°27'0 0.0
2018-Apr-25 17:30N 34°33' E 135°27'0 0.0
2018-Apr-25 17:00N 34°33' E 135°27'0 0.0
2018-Apr-25 16:30N 34°33' E 135°27'0 0.0
2018-Apr-25 16:00N 34°33' E 135°27'0 0.0
2018-Apr-25 15:30N 34°33' E 135°27'0 0.0
2018-Apr-25 15:00N 34°33' E 135°27'0 0.0
2018-Apr-25 14:31N 34°33' E 135°27'0 0.0
2018-Apr-25 14:01N 34°33' E 135°27'0 0.0
2018-Apr-25 13:30N 34°33' E 135°27'0 0.0
2018-Apr-25 13:00N 34°33' E 135°27'0 0.0
2018-Apr-25 12:30N 34°33' E 135°27'0 0.0
2018-Apr-25 12:00N 34°33' E 135°27'0 0.0
2018-Apr-25 11:30N 34°33' E 135°27'0 0.0
2018-Apr-25 11:00N 34°33' E 135°27'0 0.0
2018-Apr-25 10:30N 34°33' E 135°27'0 0.0
2018-Apr-25 10:00N 34°33' E 135°27'0 0.0
2018-Apr-25 09:30N 34°33' E 135°27'0 0.0
2018-Apr-25 09:00N 34°33' E 135°27'5 9.4
2018-Apr-25 08:30N 34°37' E 135°23'3 5.9
2018-Apr-25 08:01N 34°39' E 135°25'1 2.1
2018-Apr-25 07:30N 34°39' E 135°24'1 2.4
2018-Apr-25 07:01N 34°38' E 135°23'2 3.4
2018-Apr-25 06:29N 34°36' E 135°24'0 0.0
2018-Apr-25 06:00N 34°36' E 135°24'0 0.0
2018-Apr-25 05:30N 34°36' E 135°24'0 0.0
2018-Apr-25 05:00N 34°36' E 135°24'0 0.0
2018-Apr-25 04:30N 34°36' E 135°24'0 0.0
2018-Apr-25 04:00N 34°36' E 135°24'0 0.0
2018-Apr-25 03:30N 34°36' E 135°24'0 0.0
2018-Apr-25 03:00N 34°36' E 135°24'0 0.0
2018-Apr-25 02:30N 34°36' E 135°24'0 0.0
2018-Apr-25 02:00N 34°36' E 135°24'0 0.0
2018-Apr-25 01:30N 34°36' E 135°24'0 0.0
2018-Apr-25 01:00N 34°36' E 135°24'0 0.0
2018-Apr-25 00:30N 34°36' E 135°24'0 0.0
2018-Apr-25 00:00N 34°36' E 135°24'0 0.0
2018-Apr-24 23:30N 34°36' E 135°24'3 6.0
2018-Apr-24 23:00N 34°39' E 135°24'1 1.0
2018-Apr-24 22:30N 34°39' E 135°24'1 2.4
2018-Apr-24 22:00N 34°38' E 135°23'3 6.6
2018-Apr-24 21:30N 34°34' E 135°24'2 4.8
2018-Apr-24 20:59N 34°33' E 135°27'0 0.0
2018-Apr-24 20:30N 34°33' E 135°27'0 0.0
2018-Apr-24 20:00N 34°33' E 135°27'0 0.0
2018-Apr-24 19:30N 34°33' E 135°27'0 0.0
2018-Apr-24 19:00N 34°33' E 135°27'0 0.0
2018-Apr-24 18:30N 34°33' E 135°27'0 0.0
2018-Apr-24 18:00N 34°33' E 135°27'0 0.0
2018-Apr-24 17:31N 34°33' E 135°27'0 0.0
2018-Apr-24 17:00N 34°33' E 135°27'0 0.0
2018-Apr-24 16:30N 34°33' E 135°27'0 0.0
2018-Apr-24 16:00N 34°33' E 135°27'0 0.0
2018-Apr-24 15:31N 34°33' E 135°27'0 0.0
2018-Apr-24 15:00N 34°33' E 135°27'0 0.0
2018-Apr-24 14:31N 34°33' E 135°27'0 0.0
2018-Apr-24 14:00N 34°33' E 135°27'0 0.0
2018-Apr-24 13:30N 34°33' E 135°27'0 0.0
2018-Apr-24 13:00N 34°33' E 135°27'0 0.0
2018-Apr-24 12:30N 34°33' E 135°27'0 0.0
2018-Apr-24 12:00N 34°33' E 135°27'0 0.0
2018-Apr-24 11:31N 34°33' E 135°27'0 0.0
2018-Apr-24 11:00N 34°33' E 135°27'0 0.0
2018-Apr-24 10:30N 34°33' E 135°27'0 0.0
2018-Apr-24 10:00N 34°33' E 135°27'0 0.0
2018-Apr-24 09:30N 34°33' E 135°27'0 0.0
2018-Apr-24 09:01N 34°33' E 135°27'0 0.0
2018-Apr-24 08:30N 34°33' E 135°27'0 0.0
2018-Apr-24 08:00N 34°33' E 135°27'0 0.0
2018-Apr-24 07:30N 34°33' E 135°27'0 0.0
2018-Apr-24 07:00N 34°33' E 135°27'0 0.0
2018-Apr-24 06:30N 34°33' E 135°27'0 0.0
2018-Apr-24 06:00N 34°33' E 135°27'0 0.0
2018-Apr-24 05:30N 34°33' E 135°27'0 0.0
2018-Apr-24 05:00N 34°33' E 135°27'0 0.0
2018-Apr-24 04:30N 34°33' E 135°27'0 0.0
2018-Apr-24 04:00N 34°33' E 135°27'0 0.0
2018-Apr-24 03:30N 34°33' E 135°27'0 0.0
2018-Apr-24 03:00N 34°33' E 135°27'0 0.0
2018-Apr-24 02:30N 34°33' E 135°27'0 0.0
2018-Apr-24 02:00N 34°33' E 135°27'0 0.0
2018-Apr-24 01:30N 34°33' E 135°27'0 0.0
2018-Apr-24 01:00N 34°33' E 135°27'0 0.0
2018-Apr-24 00:30N 34°33' E 135°27'0 0.0
2018-Apr-24 00:00N 34°33' E 135°27'0 0.0
2018-Apr-23 23:30N 34°33' E 135°27'0 0.0
2018-Apr-23 23:00N 34°33' E 135°27'0 0.0
2018-Apr-23 22:30N 34°33' E 135°27'0 0.0
2018-Apr-23 22:00N 34°33' E 135°27'0 0.0
2018-Apr-23 21:30N 34°33' E 135°27'0 0.0
2018-Apr-23 21:00N 34°33' E 135°27'0 0.0
2018-Apr-23 20:30N 34°33' E 135°27'0 0.0
2018-Apr-23 20:00N 34°33' E 135°27'0 0.0
2018-Apr-23 19:30N 34°33' E 135°27'0 0.0
2018-Apr-23 19:00N 34°33' E 135°27'0 0.0
2018-Apr-23 18:30N 34°33' E 135°27'0 0.0
2018-Apr-23 18:00N 34°33' E 135°27'0 0.0
2018-Apr-23 17:30N 34°33' E 135°27'0 0.0
2018-Apr-23 17:00N 34°33' E 135°27'0 0.0
2018-Apr-23 16:30N 34°33' E 135°27'0 0.0
2018-Apr-23 16:00N 34°33' E 135°27'0 0.0
2018-Apr-23 15:30N 34°33' E 135°27'0 0.0
2018-Apr-23 15:00N 34°33' E 135°27'0 0.0
2018-Apr-23 14:30N 34°33' E 135°27'0 0.0
2018-Apr-23 14:00N 34°33' E 135°27'0 0.0
2018-Apr-23 13:30N 34°33' E 135°27'0 0.0
2018-Apr-23 13:00N 34°33' E 135°27'0 0.0
2018-Apr-23 12:30N 34°33' E 135°27'0 0.0
2018-Apr-23 12:00N 34°33' E 135°27'0 0.0
2018-Apr-23 11:30N 34°33' E 135°27'0 0.0
2018-Apr-23 11:00N 34°33' E 135°27'0 0.0
2018-Apr-23 10:30N 34°33' E 135°27'0 0.0
2018-Apr-23 10:00N 34°33' E 135°27'1 1.7
2018-Apr-23 09:30N 34°33' E 135°26'3 5.0
2018-Apr-23 09:00N 34°36' E 135°25'1 2.8
2018-Apr-23 08:30N 34°35' E 135°27'1 1.3
2018-Apr-23 08:01N 34°35' E 135°26'3 5.9
2018-Apr-23 07:30N 34°36' E 135°23'1 2.1
2018-Apr-23 07:01N 34°35' E 135°23'0 0.8
2018-Apr-23 06:30N 34°36' E 135°23'1 2.5
2018-Apr-23 06:00N 34°36' E 135°25'2 4.0
2018-Apr-23 05:30N 34°35' E 135°27'3 5.4
2018-Apr-23 05:01N 34°36' E 135°24'0 0.0
2018-Apr-23 04:30N 34°36' E 135°24'0 0.0
2018-Apr-23 04:00N 34°36' E 135°24'0 0.0
2018-Apr-23 03:30N 34°36' E 135°24'0 0.0
2018-Apr-23 03:00N 34°36' E 135°24'0 0.0
2018-Apr-23 02:29N 34°36' E 135°24'0 0.0
2018-Apr-23 02:00N 34°36' E 135°24'0 0.0
2018-Apr-23 01:30N 34°36' E 135°24'0 0.0
2018-Apr-23 01:00N 34°36' E 135°24'0 0.0
2018-Apr-23 00:30N 34°36' E 135°24'0 0.0
2018-Apr-23 00:00N 34°36' E 135°24'0 0.0
2018-Apr-22 23:30N 34°36' E 135°24'1 2.0
2018-Apr-22 23:00N 34°37' E 135°23'2 3.6
2018-Apr-22 22:31N 34°39' E 135°24'1 2.5
2018-Apr-22 22:01N 34°38' E 135°23'2 3.4
2018-Apr-22 21:30N 34°36' E 135°24'3 6.6
2018-Apr-22 21:01N 34°33' E 135°26'0 0.7
2018-Apr-22 20:30N 34°33' E 135°27'0 0.0
2018-Apr-22 20:00N 34°33' E 135°27'0 0.0
2018-Apr-22 19:30N 34°33' E 135°27'0 0.0
2018-Apr-22 18:59N 34°33' E 135°27'0 0.0
2018-Apr-22 18:30N 34°33' E 135°27'0 0.0
2018-Apr-22 18:00N 34°33' E 135°27'0 0.0
2018-Apr-22 17:30N 34°33' E 135°27'0 0.0
2018-Apr-22 17:00N 34°33' E 135°27'0 0.0
2018-Apr-22 16:30N 34°33' E 135°27'0 0.0
2018-Apr-22 16:01N 34°33' E 135°27'0 0.0
2018-Apr-22 15:30N 34°33' E 135°27'0 0.0
2018-Apr-22 15:01N 34°33' E 135°27'0 0.0
2018-Apr-22 14:30N 34°33' E 135°27'0 0.0
2018-Apr-22 14:00N 34°33' E 135°27'0 0.0
2018-Apr-22 13:30N 34°33' E 135°27'0 0.0
2018-Apr-22 13:00N 34°33' E 135°27'0 0.0
2018-Apr-22 12:30N 34°33' E 135°27'0 0.0
2018-Apr-22 12:00N 34°33' E 135°27'0 0.0
2018-Apr-22 11:30N 34°33' E 135°27'0 0.0
2018-Apr-22 11:00N 34°33' E 135°27'0 0.0
2018-Apr-22 10:30N 34°33' E 135°27'0 0.0
2018-Apr-22 10:00N 34°33' E 135°27'0 0.0
2018-Apr-22 09:30N 34°33' E 135°27'0 0.0
2018-Apr-22 09:00N 34°33' E 135°27'0 0.0
2018-Apr-22 08:30N 34°33' E 135°27'0 0.0
2018-Apr-22 08:00N 34°33' E 135°27'0 0.0
2018-Apr-22 07:30N 34°33' E 135°27'0 0.0
2018-Apr-22 07:00N 34°33' E 135°27'0 0.0
2018-Apr-22 06:30N 34°33' E 135°27'0 0.0
2018-Apr-22 06:00N 34°33' E 135°27'0 0.0
2018-Apr-22 05:30N 34°33' E 135°27'0 0.0
2018-Apr-22 05:00N 34°33' E 135°27'0 0.0
2018-Apr-22 04:30N 34°33' E 135°27'0 0.0
2018-Apr-22 04:00N 34°33' E 135°27'0 0.0
2018-Apr-22 03:30N 34°33' E 135°27'0 0.0
2018-Apr-22 03:00N 34°33' E 135°27'0 0.0
2018-Apr-22 02:31N 34°33' E 135°27'0 0.0
2018-Apr-22 02:01N 34°33' E 135°27'0 0.0
2018-Apr-22 01:30N 34°33' E 135°27'0 0.0
2018-Apr-22 01:01N 34°33' E 135°27'0 0.0
2018-Apr-22 00:31N 34°33' E 135°27'0 0.0
2018-Apr-22 00:00N 34°33' E 135°27'0 0.0
2018-Apr-21 23:30N 34°33' E 135°27'0 0.0
2018-Apr-21 23:00N 34°33' E 135°27'0 0.0
2018-Apr-21 22:30N 34°33' E 135°27'0 0.0
2018-Apr-21 22:00N 34°33' E 135°27'0 0.0
2018-Apr-21 21:30N 34°33' E 135°27'0 0.0
2018-Apr-21 21:00N 34°33' E 135°27'0 0.0
2018-Apr-21 20:30N 34°33' E 135°27'0 0.0
2018-Apr-21 20:00N 34°33' E 135°27'0 0.0
2018-Apr-21 19:30N 34°33' E 135°27'0 0.0
2018-Apr-21 19:00N 34°33' E 135°27'0 0.0
2018-Apr-21 18:30N 34°33' E 135°27'0 0.0
2018-Apr-21 18:00N 34°33' E 135°27'0 0.0
2018-Apr-21 17:31N 34°33' E 135°27'0 0.0
2018-Apr-21 17:00N 34°33' E 135°27'0 0.0
2018-Apr-21 16:30N 34°33' E 135°27'0 0.0
2018-Apr-21 16:00N 34°33' E 135°27'0 0.0
2018-Apr-21 15:30N 34°33' E 135°27'0 0.0
2018-Apr-21 15:00N 34°33' E 135°27'0 0.0
2018-Apr-21 14:30N 34°33' E 135°27'0 0.0
2018-Apr-21 14:00N 34°33' E 135°27'0 0.0
2018-Apr-21 13:30N 34°33' E 135°27'0 0.0
2018-Apr-21 13:00N 34°33' E 135°27'0 0.0
2018-Apr-21 12:31N 34°33' E 135°27'0 0.0
2018-Apr-21 12:00N 34°33' E 135°27'0 0.0
2018-Apr-21 11:30N 34°33' E 135°27'0 0.0
2018-Apr-21 11:00N 34°33' E 135°27'0 0.0
2018-Apr-21 10:30N 34°33' E 135°27'3 5.5
2018-Apr-21 10:00N 34°34' E 135°24'5 9.1
2018-Apr-21 09:30N 34°39' E 135°26'0 0.2
2018-Apr-21 09:00N 34°39' E 135°26'3 6.1
2018-Apr-21 08:30N 34°36' E 135°24'4 7.5
2018-Apr-21 08:00N 34°33' E 135°27'0 0.0
2018-Apr-21 07:30N 34°33' E 135°27'0 0.0
2018-Apr-21 07:00N 34°33' E 135°27'0 0.0
2018-Apr-21 06:30N 34°33' E 135°27'0 0.0
2018-Apr-21 06:00N 34°33' E 135°27'0 0.0
2018-Apr-21 05:30N 34°33' E 135°27'0 0.0
2018-Apr-21 05:00N 34°33' E 135°27'0 0.0
2018-Apr-21 04:30N 34°33' E 135°27'0 0.0
2018-Apr-21 04:00N 34°33' E 135°27'0 0.0
2018-Apr-21 03:30N 34°33' E 135°27'0 0.0
2018-Apr-21 03:00N 34°33' E 135°27'0 0.0
2018-Apr-21 02:30N 34°33' E 135°27'0 0.0
2018-Apr-21 02:00N 34°33' E 135°27'0 0.0
2018-Apr-21 01:30N 34°33' E 135°27'0 0.0
2018-Apr-21 01:00N 34°33' E 135°27'0 0.0
2018-Apr-21 00:30N 34°33' E 135°27'0 0.0
2018-Apr-21 00:00N 34°33' E 135°27'1 2.6
2018-Apr-20 23:30N 34°34' E 135°25'1 2.3
2018-Apr-20 23:00N 34°33' E 135°24'0 0.5
2018-Apr-20 22:30N 34°34' E 135°24'2 4.5
2018-Apr-20 22:00N 34°33' E 135°27'0 0.0
2018-Apr-20 21:30N 34°33' E 135°27'0 0.0
2018-Apr-20 21:00N 34°33' E 135°27'0 0.0
2018-Apr-20 20:30N 34°33' E 135°27'0 0.0
2018-Apr-20 20:00N 34°33' E 135°27'0 0.0
2018-Apr-20 19:30N 34°33' E 135°27'0 0.0
2018-Apr-20 19:00N 34°33' E 135°27'0 0.0
2018-Apr-20 18:30N 34°33' E 135°27'0 0.0
2018-Apr-20 18:00N 34°33' E 135°27'0 0.0
2018-Apr-20 17:30N 34°33' E 135°27'0 0.0
2018-Apr-20 17:00N 34°33' E 135°27'0 0.0
2018-Apr-20 16:30N 34°33' E 135°27'0 0.0
2018-Apr-20 16:00N 34°33' E 135°27'0 0.0
2018-Apr-20 15:30N 34°33' E 135°27'0 0.0
2018-Apr-20 15:00N 34°33' E 135°27'0 0.0
2018-Apr-20 14:30N 34°33' E 135°27'0 0.0
2018-Apr-20 14:00N 34°33' E 135°27'0 0.0
2018-Apr-20 13:30N 34°33' E 135°27'0 0.0
2018-Apr-20 13:00N 34°33' E 135°27'0 0.0
2018-Apr-20 12:30N 34°33' E 135°27'0 0.0
2018-Apr-20 12:00N 34°33' E 135°27'0 0.0
2018-Apr-20 11:30N 34°33' E 135°27'0 0.0
2018-Apr-20 11:00N 34°33' E 135°27'0 0.0
2018-Apr-20 10:30N 34°33' E 135°27'0 0.0
2018-Apr-20 10:00N 34°33' E 135°27'0 0.0
2018-Apr-20 09:30N 34°33' E 135°27'1 2.7
2018-Apr-20 09:00N 34°33' E 135°25'0 0.1
2018-Apr-20 08:30N 34°33' E 135°25'0 0.1
2018-Apr-20 08:00N 34°33' E 135°25'1 1.4
2018-Apr-20 07:31N 34°33' E 135°25'4 7.1
2018-Apr-20 07:00N 34°33' E 135°21'1 1.5
2018-Apr-20 06:30N 34°34' E 135°21'3 6.0
2018-Apr-20 06:00N 34°36' E 135°24'0 0.0
2018-Apr-20 05:30N 34°36' E 135°24'0 0.0
2018-Apr-20 05:00N 34°36' E 135°24'0 0.0
2018-Apr-20 04:30N 34°36' E 135°24'0 0.0
2018-Apr-20 04:00N 34°36' E 135°24'0 0.0
2018-Apr-20 03:30N 34°36' E 135°24'0 0.0
2018-Apr-20 02:59N 34°36' E 135°24'0 0.0
2018-Apr-20 02:30N 34°36' E 135°24'0 0.0
2018-Apr-20 02:00N 34°36' E 135°24'0 0.0
2018-Apr-20 01:30N 34°36' E 135°24'0 0.0
2018-Apr-20 01:00N 34°36' E 135°24'0 0.0
2018-Apr-20 00:30N 34°36' E 135°24'0 0.0
2018-Apr-20 00:00N 34°36' E 135°24'3 5.2
2018-Apr-19 23:30N 34°33' E 135°25'1 2.1
2018-Apr-19 23:00N 34°33' E 135°25'2 4.0
2018-Apr-19 22:31N 34°33' E 135°23'3 5.1
2018-Apr-19 22:01N 34°33' E 135°26'0 0.7
2018-Apr-19 21:30N 34°33' E 135°27'0 0.0
2018-Apr-19 21:00N 34°33' E 135°27'0 0.0
2018-Apr-19 20:30N 34°33' E 135°27'0 0.0
2018-Apr-19 20:00N 34°33' E 135°27'0 0.0
2018-Apr-19 19:30N 34°33' E 135°27'0 0.0
2018-Apr-19 19:00N 34°33' E 135°27'0 0.0
2018-Apr-19 18:30N 34°33' E 135°27'0 0.0
2018-Apr-19 18:00N 34°33' E 135°27'0 0.0
2018-Apr-19 17:30N 34°33' E 135°27'0 0.0
2018-Apr-19 17:00N 34°33' E 135°27'0 0.0
2018-Apr-19 16:30N 34°33' E 135°27'0 0.0
2018-Apr-19 16:00N 34°33' E 135°27'0 0.0
2018-Apr-19 15:30N 34°33' E 135°27'0 0.0
2018-Apr-19 15:00N 34°33' E 135°27'0 0.0
2018-Apr-19 14:30N 34°33' E 135°27'0 0.0
2018-Apr-19 14:00N 34°33' E 135°27'0 0.0
2018-Apr-19 13:30N 34°33' E 135°27'0 0.0
2018-Apr-19 13:00N 34°33' E 135°27'0 0.0
2018-Apr-19 12:30N 34°33' E 135°27'0 0.0
2018-Apr-19 12:00N 34°33' E 135°27'0 0.0
2018-Apr-19 11:30N 34°33' E 135°27'0 0.0
2018-Apr-19 11:00N 34°33' E 135°27'0 0.0
2018-Apr-19 10:30N 34°33' E 135°27'0 0.0
2018-Apr-19 10:00N 34°33' E 135°27'0 0.0
2018-Apr-19 09:30N 34°33' E 135°27'0 0.0
2018-Apr-19 09:00N 34°33' E 135°27'0 0.0
2018-Apr-19 08:30N 34°33' E 135°27'0 0.0
2018-Apr-19 08:00N 34°33' E 135°27'0 0.0
2018-Apr-19 07:30N 34°33' E 135°27'0 0.0
2018-Apr-19 07:00N 34°33' E 135°27'0 0.0
2018-Apr-19 06:30N 34°33' E 135°27'0 0.0
2018-Apr-19 06:00N 34°33' E 135°27'0 0.0
2018-Apr-19 05:30N 34°33' E 135°27'0 0.0
2018-Apr-19 05:00N 34°33' E 135°27'0 0.0
2018-Apr-19 04:30N 34°33' E 135°27'0 0.0
2018-Apr-19 04:00N 34°33' E 135°27'0 0.0
2018-Apr-19 03:30N 34°33' E 135°27'0 0.0
2018-Apr-19 03:00N 34°33' E 135°27'0 0.0
2018-Apr-19 02:30N 34°33' E 135°27'0 0.0
2018-Apr-19 02:00N 34°33' E 135°27'0 0.0
2018-Apr-19 01:30N 34°33' E 135°27'0 0.0
2018-Apr-19 01:00N 34°33' E 135°27'0 0.0
2018-Apr-19 00:30N 34°33' E 135°27'0 0.0
2018-Apr-19 00:00N 34°33' E 135°27'0 0.0
2018-Apr-18 23:30N 34°33' E 135°27'0 0.0
2018-Apr-18 23:00N 34°33' E 135°27'0 0.0
2018-Apr-18 22:30N 34°33' E 135°27'0 0.0
2018-Apr-18 22:00N 34°33' E 135°27'0 0.0
2018-Apr-18 21:30N 34°33' E 135°27'0 0.0
2018-Apr-18 21:00N 34°33' E 135°27'0 0.0
2018-Apr-18 20:30N 34°33' E 135°27'0 0.0
2018-Apr-18 20:00N 34°33' E 135°27'0 0.0
2018-Apr-18 19:30N 34°33' E 135°27'0 0.0
2018-Apr-18 19:00N 34°33' E 135°27'0 0.0
2018-Apr-18 18:30N 34°33' E 135°27'0 0.0
2018-Apr-18 18:00N 34°33' E 135°27'0 0.0
2018-Apr-18 17:30N 34°33' E 135°27'0 0.0
2018-Apr-18 17:00N 34°33' E 135°27'0 0.0
2018-Apr-18 16:30N 34°33' E 135°27'0 0.0
2018-Apr-18 16:00N 34°33' E 135°27'0 0.0
2018-Apr-18 15:30N 34°33' E 135°27'0 0.0
2018-Apr-18 15:00N 34°33' E 135°27'0 0.0
2018-Apr-18 14:30N 34°33' E 135°27'0 0.0
2018-Apr-18 14:00N 34°33' E 135°27'0 0.0
2018-Apr-18 13:30N 34°33' E 135°27'0 0.0
2018-Apr-18 13:00N 34°33' E 135°27'0 0.0
2018-Apr-18 12:30N 34°33' E 135°27'0 0.0
2018-Apr-18 12:00N 34°33' E 135°27'0 0.0
2018-Apr-18 11:30N 34°33' E 135°27'0 0.0
2018-Apr-18 11:00N 34°33' E 135°27'0 0.0
2018-Apr-18 10:30N 34°33' E 135°27'0 0.0
2018-Apr-18 10:00N 34°33' E 135°27'0 0.0
2018-Apr-18 09:30N 34°33' E 135°27'0 0.0
2018-Apr-18 09:00N 34°33' E 135°27'0 0.0
2018-Apr-18 08:30N 34°33' E 135°27'0 0.0
2018-Apr-18 08:00N 34°33' E 135°27'0 0.0
2018-Apr-18 07:30N 34°33' E 135°27'0 0.0
2018-Apr-18 07:00N 34°33' E 135°27'0 0.0
2018-Apr-18 06:30N 34°33' E 135°27'0 0.0
2018-Apr-18 06:00N 34°33' E 135°27'0 0.0
2018-Apr-18 05:30N 34°33' E 135°27'0 0.0
2018-Apr-18 05:00N 34°33' E 135°27'0 0.0
2018-Apr-18 04:30N 34°33' E 135°27'0 0.0
2018-Apr-18 04:00N 34°33' E 135°27'0 0.0
2018-Apr-18 03:30N 34°33' E 135°27'0 0.0
2018-Apr-18 03:00N 34°33' E 135°27'0 0.0
2018-Apr-18 02:30N 34°33' E 135°27'0 0.0
2018-Apr-18 02:00N 34°33' E 135°27'0 0.0
2018-Apr-18 01:30N 34°33' E 135°27'0 0.0
2018-Apr-18 01:00N 34°33' E 135°27'0 0.0
2018-Apr-18 00:30N 34°33' E 135°27'0 0.0
2018-Apr-18 00:00N 34°33' E 135°27'0 0.0
2018-Apr-17 23:30N 34°33' E 135°27'0 0.0
2018-Apr-17 23:00N 34°33' E 135°27'0 0.0
2018-Apr-17 22:30N 34°33' E 135°27'0 0.0
2018-Apr-17 22:00N 34°33' E 135°27'0 0.0
2018-Apr-17 21:30N 34°33' E 135°27'0 0.0
2018-Apr-17 21:00N 34°33' E 135°27'0 0.0
2018-Apr-17 20:30N 34°33' E 135°27'0 0.0
2018-Apr-17 20:00N 34°33' E 135°27'0 0.0
2018-Apr-17 19:30N 34°33' E 135°27'0 0.0
2018-Apr-17 19:00N 34°33' E 135°27'0 0.0
2018-Apr-17 18:30N 34°33' E 135°27'0 0.0
2018-Apr-17 18:00N 34°33' E 135°27'0 0.0
2018-Apr-17 17:30N 34°33' E 135°27'0 0.0
2018-Apr-17 17:00N 34°33' E 135°27'0 0.0
2018-Apr-17 16:30N 34°33' E 135°27'0 0.0
2018-Apr-17 15:59N 34°33' E 135°27'0 0.0
2018-Apr-17 15:30N 34°33' E 135°27'0 0.0
2018-Apr-17 14:59N 34°33' E 135°27'0 0.0
2018-Apr-17 14:30N 34°33' E 135°27'0 0.0
2018-Apr-17 14:00N 34°33' E 135°27'0 0.0
2018-Apr-17 13:30N 34°33' E 135°27'0 0.0
2018-Apr-17 13:00N 34°33' E 135°27'0 0.0
2018-Apr-17 12:30N 34°33' E 135°27'0 0.0
2018-Apr-17 12:00N 34°33' E 135°27'0 0.0
2018-Apr-17 11:30N 34°33' E 135°27'0 0.0
2018-Apr-17 11:00N 34°33' E 135°27'0 0.0
2018-Apr-17 10:30N 34°33' E 135°27'0 0.0
2018-Apr-17 10:00N 34°33' E 135°27'0 0.0
2018-Apr-17 09:30N 34°33' E 135°27'0 0.0
2018-Apr-17 09:00N 34°33' E 135°27'0 0.0
2018-Apr-17 08:30N 34°33' E 135°27'0 0.0
2018-Apr-17 08:00N 34°33' E 135°27'0 0.0
2018-Apr-17 07:30N 34°33' E 135°27'0 0.0
2018-Apr-17 07:00N 34°33' E 135°27'0 0.0
2018-Apr-17 06:30N 34°33' E 135°27'0 0.0
2018-Apr-17 06:00N 34°33' E 135°27'0 0.0
2018-Apr-17 05:30N 34°33' E 135°27'1 2.5
2018-Apr-17 05:00N 34°33' E 135°25'0 0.8
2018-Apr-17 04:30N 34°33' E 135°26'1 1.8
2018-Apr-17 04:00N 34°33' E 135°27'0 0.0
2018-Apr-17 03:30N 34°33' E 135°27'0 0.0
2018-Apr-17 03:00N 34°33' E 135°27'0 0.0
2018-Apr-17 02:30N 34°33' E 135°27'0 0.0
2018-Apr-17 02:00N 34°33' E 135°27'0 0.0
2018-Apr-17 01:30N 34°33' E 135°27'0 0.0
2018-Apr-17 01:00N 34°33' E 135°27'0 0.0
2018-Apr-17 00:30N 34°33' E 135°27'0 0.0
2018-Apr-17 00:00N 34°33' E 135°27'0 0.0
2018-Apr-16 23:30N 34°33' E 135°27'0 0.0
2018-Apr-16 23:00N 34°33' E 135°27'0 0.0
2018-Apr-16 22:30N 34°33' E 135°27'0 0.0
2018-Apr-16 22:00N 34°33' E 135°27'0 0.0
2018-Apr-16 21:30N 34°33' E 135°27'0 0.0
2018-Apr-16 21:00N 34°33' E 135°27'0 0.0
2018-Apr-16 20:30N 34°33' E 135°27'0 0.0
2018-Apr-16 20:00N 34°33' E 135°27'0 0.0
2018-Apr-16 19:30N 34°33' E 135°27'0 0.0
2018-Apr-16 19:00N 34°33' E 135°27'0 0.0
2018-Apr-16 18:30N 34°33' E 135°27'0 0.0
2018-Apr-16 18:00N 34°33' E 135°27'0 0.0
2018-Apr-16 17:30N 34°33' E 135°27'0 0.0
2018-Apr-16 17:00N 34°33' E 135°27'0 0.0
2018-Apr-16 16:29N 34°33' E 135°27'0 0.0
2018-Apr-16 16:00N 34°33' E 135°27'0 0.0
2018-Apr-16 15:30N 34°33' E 135°27'0 0.0
2018-Apr-16 15:00N 34°33' E 135°27'0 0.0
2018-Apr-16 14:30N 34°33' E 135°27'0 0.0
2018-Apr-16 14:00N 34°33' E 135°27'0 0.0
2018-Apr-16 13:30N 34°33' E 135°27'0 0.0
2018-Apr-16 13:00N 34°33' E 135°27'0 0.0
2018-Apr-16 12:30N 34°33' E 135°27'0 0.0
2018-Apr-16 12:00N 34°33' E 135°27'0 0.0
2018-Apr-16 11:30N 34°33' E 135°27'  
Track history (hours):
 
Tides and Currents Weather Stations Pressure Air Temp Water Temp Dewpoint Dewpoint Depression Visibility Wind Speed Wind Dir Waves Ship Positions

Yoshino

Last reported at 2018-Apr-26 11:00 UTC. Time now 2018-Apr-26 11:14 UTC.
Position N 34°33' E 135°27'.

Length 38 m; draft 4 m.

Type: Tug. MMSI: 431301568.

Date/timePositionNaut miles runAvg speedWind from/ knotsBaromVisibWave heightAir tempDewpointWater temp
2018-Apr-26 11:00N 34°33' E 135°27'0 0.0
2018-Apr-26 10:30N 34°33' E 135°27'0 0.0
2018-Apr-26 10:00N 34°33' E 135°27'0 0.0
2018-Apr-26 09:30N 34°33' E 135°27'0 0.0
2018-Apr-26 09:00N 34°33' E 135°27'0 0.0
2018-Apr-26 08:30N 34°33' E 135°27'0 0.0
2018-Apr-26 08:00N 34°33' E 135°27'3 6.2
2018-Apr-26 07:30N 34°33' E 135°23'1 2.3
2018-Apr-26 07:00N 34°34' E 135°24'0 0.1
2018-Apr-26 06:31N 34°34' E 135°24'3 5.6
2018-Apr-26 06:00N 34°31' E 135°24'0 0.5
2018-Apr-26 05:30N 34°31' E 135°24'0 0.0
2018-Apr-26 05:00N 34°31' E 135°24'0 0.0
2018-Apr-26 04:31N 34°31' E 135°24'0 0.0
2018-Apr-26 04:00N 34°31' E 135°24'0 0.0
2018-Apr-26 03:30N 34°31' E 135°24'0 0.0
2018-Apr-26 03:00N 34°31' E 135°24'2 3.1
2018-Apr-26 02:30N 34°32' E 135°23'2 4.1
2018-Apr-26 02:00N 34°34' E 135°24'0 0.0
2018-Apr-26 01:30N 34°34' E 135°24'0 0.2
2018-Apr-26 01:01N 34°34' E 135°24'1 2.0
2018-Apr-26 00:30N 34°33' E 135°23'3 5.2
2018-Apr-26 00:00N 34°33' E 135°20'1 1.7
2018-Apr-25 23:30N 34°33' E 135°21'4 8.9
2018-Apr-25 23:00N 34°33' E 135°27'0 0.1
2018-Apr-25 22:30N 34°33' E 135°27'0 0.0
2018-Apr-25 22:00N 34°33' E 135°27'0 0.0
2018-Apr-25 21:30N 34°33' E 135°27'0 0.0
2018-Apr-25 21:00N 34°33' E 135°27'0 0.0
2018-Apr-25 20:30N 34°33' E 135°27'0 0.0
2018-Apr-25 20:00N 34°33' E 135°27'0 0.0
2018-Apr-25 19:30N 34°33' E 135°27'0 0.0
2018-Apr-25 19:00N 34°33' E 135°27'0 0.0
2018-Apr-25 18:30N 34°33' E 135°27'0 0.0
2018-Apr-25 18:00N 34°33' E 135°27'0 0.0
2018-Apr-25 17:30N 34°33' E 135°27'0 0.0
2018-Apr-25 17:00N 34°33' E 135°27'0 0.0
2018-Apr-25 16:30N 34°33' E 135°27'0 0.0
2018-Apr-25 16:00N 34°33' E 135°27'0 0.0
2018-Apr-25 15:30N 34°33' E 135°27'0 0.0
2018-Apr-25 15:00N 34°33' E 135°27'0 0.0
2018-Apr-25 14:31N 34°33' E 135°27'0 0.0
2018-Apr-25 14:01N 34°33' E 135°27'0 0.0
2018-Apr-25 13:30N 34°33' E 135°27'0 0.0
2018-Apr-25 13:00N 34°33' E 135°27'0 0.0
2018-Apr-25 12:30N 34°33' E 135°27'0 0.0
2018-Apr-25 12:00N 34°33' E 135°27'0 0.0
2018-Apr-25 11:30N 34°33' E 135°27'0 0.0
2018-Apr-25 11:00N 34°33' E 135°27'0 0.0
2018-Apr-25 10:30N 34°33' E 135°27'0 0.0
2018-Apr-25 10:00N 34°33' E 135°27'0 0.0
2018-Apr-25 09:30N 34°33' E 135°27'0 0.0
2018-Apr-25 09:00N 34°33' E 135°27'5 9.4
2018-Apr-25 08:30N 34°37' E 135°23'3 5.9
2018-Apr-25 08:01N 34°39' E 135°25'1 2.1
2018-Apr-25 07:30N 34°39' E 135°24'1 2.4
2018-Apr-25 07:01N 34°38' E 135°23'2 3.4
2018-Apr-25 06:29N 34°36' E 135°24'0 0.0
2018-Apr-25 06:00N 34°36' E 135°24'0 0.0
2018-Apr-25 05:30N 34°36' E 135°24'0 0.0
2018-Apr-25 05:00N 34°36' E 135°24'0 0.0
2018-Apr-25 04:30N 34°36' E 135°24'0 0.0
2018-Apr-25 04:00N 34°36' E 135°24'0 0.0
2018-Apr-25 03:30N 34°36' E 135°24'0 0.0
2018-Apr-25 03:00N 34°36' E 135°24'0 0.0
2018-Apr-25 02:30N 34°36' E 135°24'0 0.0
2018-Apr-25 02:00N 34°36' E 135°24'0 0.0
2018-Apr-25 01:30N 34°36' E 135°24'0 0.0
2018-Apr-25 01:00N 34°36' E 135°24'0 0.0
2018-Apr-25 00:30N 34°36' E 135°24'0 0.0
2018-Apr-25 00:00N 34°36' E 135°24'0 0.0
2018-Apr-24 23:30N 34°36' E 135°24'3 6.0
2018-Apr-24 23:00N 34°39' E 135°24'1 1.0
2018-Apr-24 22:30N 34°39' E 135°24'1 2.4
2018-Apr-24 22:00N 34°38' E 135°23'3 6.6
2018-Apr-24 21:30N 34°34' E 135°24'2 4.8
2018-Apr-24 20:59N 34°33' E 135°27'0 0.0
2018-Apr-24 20:30N 34°33' E 135°27'0 0.0
2018-Apr-24 20:00N 34°33' E 135°27'0 0.0
2018-Apr-24 19:30N 34°33' E 135°27'0 0.0
2018-Apr-24 19:00N 34°33' E 135°27'0 0.0
2018-Apr-24 18:30N 34°33' E 135°27'0 0.0
2018-Apr-24 18:00N 34°33' E 135°27'0 0.0
2018-Apr-24 17:31N 34°33' E 135°27'0 0.0
2018-Apr-24 17:00N 34°33' E 135°27'0 0.0
2018-Apr-24 16:30N 34°33' E 135°27'0 0.0
2018-Apr-24 16:00N 34°33' E 135°27'0 0.0
2018-Apr-24 15:31N 34°33' E 135°27'0 0.0
2018-Apr-24 15:00N 34°33' E 135°27'0 0.0
2018-Apr-24 14:31N 34°33' E 135°27'0 0.0
2018-Apr-24 14:00N 34°33' E 135°27'0 0.0
2018-Apr-24 13:30N 34°33' E 135°27'0 0.0
2018-Apr-24 13:00N 34°33' E 135°27'0 0.0
2018-Apr-24 12:30N 34°33' E 135°27'0 0.0
2018-Apr-24 12:00N 34°33' E 135°27'0 0.0
2018-Apr-24 11:31N 34°33' E 135°27'0 0.0
2018-Apr-24 11:00N 34°33' E 135°27'0 0.0
2018-Apr-24 10:30N 34°33' E 135°27'0 0.0
2018-Apr-24 10:00N 34°33' E 135°27'0 0.0
2018-Apr-24 09:30N 34°33' E 135°27'0 0.0
2018-Apr-24 09:01N 34°33' E 135°27'0 0.0
2018-Apr-24 08:30N 34°33' E 135°27'0 0.0
2018-Apr-24 08:00N 34°33' E 135°27'0 0.0
2018-Apr-24 07:30N 34°33' E 135°27'0 0.0
2018-Apr-24 07:00N 34°33' E 135°27'0 0.0
2018-Apr-24 06:30N 34°33' E 135°27'0 0.0
2018-Apr-24 06:00N 34°33' E 135°27'0 0.0
2018-Apr-24 05:30N 34°33' E 135°27'0 0.0
2018-Apr-24 05:00N 34°33' E 135°27'0 0.0
2018-Apr-24 04:30N 34°33' E 135°27'0 0.0
2018-Apr-24 04:00N 34°33' E 135°27'0 0.0
2018-Apr-24 03:30N 34°33' E 135°27'0 0.0
2018-Apr-24 03:00N 34°33' E 135°27'0 0.0
2018-Apr-24 02:30N 34°33' E 135°27'0 0.0
2018-Apr-24 02:00N 34°33' E 135°27'0 0.0
2018-Apr-24 01:30N 34°33' E 135°27'0 0.0
2018-Apr-24 01:00N 34°33' E 135°27'0 0.0
2018-Apr-24 00:30N 34°33' E 135°27'0 0.0
2018-Apr-24 00:00N 34°33' E 135°27'0 0.0
2018-Apr-23 23:30N 34°33' E 135°27'0 0.0
2018-Apr-23 23:00N 34°33' E 135°27'0 0.0
2018-Apr-23 22:30N 34°33' E 135°27'0 0.0
2018-Apr-23 22:00N 34°33' E 135°27'0 0.0
2018-Apr-23 21:30N 34°33' E 135°27'0 0.0
2018-Apr-23 21:00N 34°33' E 135°27'0 0.0
2018-Apr-23 20:30N 34°33' E 135°27'0 0.0
2018-Apr-23 20:00N 34°33' E 135°27'0 0.0
2018-Apr-23 19:30N 34°33' E 135°27'0 0.0
2018-Apr-23 19:00N 34°33' E 135°27'0 0.0
2018-Apr-23 18:30N 34°33' E 135°27'0 0.0
2018-Apr-23 18:00N 34°33' E 135°27'0 0.0
2018-Apr-23 17:30N 34°33' E 135°27'0 0.0
2018-Apr-23 17:00N 34°33' E 135°27'0 0.0
2018-Apr-23 16:30N 34°33' E 135°27'0 0.0
2018-Apr-23 16:00N 34°33' E 135°27'0 0.0
2018-Apr-23 15:30N 34°33' E 135°27'0 0.0
2018-Apr-23 15:00N 34°33' E 135°27'0 0.0
2018-Apr-23 14:30N 34°33' E 135°27'0 0.0
2018-Apr-23 14:00N 34°33' E 135°27'0 0.0
2018-Apr-23 13:30N 34°33' E 135°27'0 0.0
2018-Apr-23 13:00N 34°33' E 135°27'0 0.0
2018-Apr-23 12:30N 34°33' E 135°27'0 0.0
2018-Apr-23 12:00N 34°33' E 135°27'0 0.0
2018-Apr-23 11:30N 34°33' E 135°27'0 0.0
2018-Apr-23 11:00N 34°33' E 135°27'0 0.0
2018-Apr-23 10:30N 34°33' E 135°27'0 0.0
2018-Apr-23 10:00N 34°33' E 135°27'1 1.7
2018-Apr-23 09:30N 34°33' E 135°26'3 5.0
2018-Apr-23 09:00N 34°36' E 135°25'1 2.8
2018-Apr-23 08:30N 34°35' E 135°27'1 1.3
2018-Apr-23 08:01N 34°35' E 135°26'3 5.9
2018-Apr-23 07:30N 34°36' E 135°23'1 2.1
2018-Apr-23 07:01N 34°35' E 135°23'0 0.8
2018-Apr-23 06:30N 34°36' E 135°23'1 2.5
2018-Apr-23 06:00N 34°36' E 135°25'2 4.0
2018-Apr-23 05:30N 34°35' E 135°27'3 5.4
2018-Apr-23 05:01N 34°36' E 135°24'0 0.0
2018-Apr-23 04:30N 34°36' E 135°24'0 0.0
2018-Apr-23 04:00N 34°36' E 135°24'0 0.0
2018-Apr-23 03:30N 34°36' E 135°24'0 0.0
2018-Apr-23 03:00N 34°36' E 135°24'0 0.0
2018-Apr-23 02:29N 34°36' E 135°24'0 0.0
2018-Apr-23 02:00N 34°36' E 135°24'0 0.0
2018-Apr-23 01:30N 34°36' E 135°24'0 0.0
2018-Apr-23 01:00N 34°36' E 135°24'0 0.0
2018-Apr-23 00:30N 34°36' E 135°24'0 0.0
2018-Apr-23 00:00N 34°36' E 135°24'0 0.0
2018-Apr-22 23:30N 34°36' E 135°24'1 2.0
2018-Apr-22 23:00N 34°37' E 135°23'2 3.6
2018-Apr-22 22:31N 34°39' E 135°24'1 2.5
2018-Apr-22 22:01N 34°38' E 135°23'2 3.4
2018-Apr-22 21:30N 34°36' E 135°24'3 6.6
2018-Apr-22 21:01N 34°33' E 135°26'0 0.7
2018-Apr-22 20:30N 34°33' E 135°27'0 0.0
2018-Apr-22 20:00N 34°33' E 135°27'0 0.0
2018-Apr-22 19:30N 34°33' E 135°27'0 0.0
2018-Apr-22 18:59N 34°33' E 135°27'0 0.0
2018-Apr-22 18:30N 34°33' E 135°27'0 0.0
2018-Apr-22 18:00N 34°33' E 135°27'0 0.0
2018-Apr-22 17:30N 34°33' E 135°27'0 0.0
2018-Apr-22 17:00N 34°33' E 135°27'0 0.0
2018-Apr-22 16:30N 34°33' E 135°27'0 0.0
2018-Apr-22 16:01N 34°33' E 135°27'0 0.0
2018-Apr-22 15:30N 34°33' E 135°27'0 0.0
2018-Apr-22 15:01N 34°33' E 135°27'0 0.0
2018-Apr-22 14:30N 34°33' E 135°27'0 0.0
2018-Apr-22 14:00N 34°33' E 135°27'0 0.0
2018-Apr-22 13:30N 34°33' E 135°27'0 0.0
2018-Apr-22 13:00N 34°33' E 135°27'0 0.0
2018-Apr-22 12:30N 34°33' E 135°27'0 0.0
2018-Apr-22 12:00N 34°33' E 135°27'0 0.0
2018-Apr-22 11:30N 34°33' E 135°27'0 0.0
2018-Apr-22 11:00N 34°33' E 135°27'0 0.0
2018-Apr-22 10:30N 34°33' E 135°27'0 0.0
2018-Apr-22 10:00N 34°33' E 135°27'0 0.0
2018-Apr-22 09:30N 34°33' E 135°27'0 0.0
2018-Apr-22 09:00N 34°33' E 135°27'0 0.0
2018-Apr-22 08:30N 34°33' E 135°27'0 0.0
2018-Apr-22 08:00N 34°33' E 135°27'0 0.0
2018-Apr-22 07:30N 34°33' E 135°27'0 0.0
2018-Apr-22 07:00N 34°33' E 135°27'0 0.0
2018-Apr-22 06:30N 34°33' E 135°27'0 0.0
2018-Apr-22 06:00N 34°33' E 135°27'0 0.0
2018-Apr-22 05:30N 34°33' E 135°27'0 0.0
2018-Apr-22 05:00N 34°33' E 135°27'0 0.0
2018-Apr-22 04:30N 34°33' E 135°27'0 0.0
2018-Apr-22 04:00N 34°33' E 135°27'0 0.0
2018-Apr-22 03:30N 34°33' E 135°27'0 0.0
2018-Apr-22 03:00N 34°33' E 135°27'0 0.0
2018-Apr-22 02:31N 34°33' E 135°27'0 0.0
2018-Apr-22 02:01N 34°33' E 135°27'0 0.0
2018-Apr-22 01:30N 34°33' E 135°27'0 0.0
2018-Apr-22 01:01N 34°33' E 135°27'0 0.0
2018-Apr-22 00:31N 34°33' E 135°27'0 0.0
2018-Apr-22 00:00N 34°33' E 135°27'0 0.0
2018-Apr-21 23:30N 34°33' E 135°27'0 0.0
2018-Apr-21 23:00N 34°33' E 135°27'0 0.0
2018-Apr-21 22:30N 34°33' E 135°27'0 0.0
2018-Apr-21 22:00N 34°33' E 135°27'0 0.0
2018-Apr-21 21:30N 34°33' E 135°27'0 0.0
2018-Apr-21 21:00N 34°33' E 135°27'0 0.0
2018-Apr-21 20:30N 34°33' E 135°27'0 0.0
2018-Apr-21 20:00N 34°33' E 135°27'0 0.0
2018-Apr-21 19:30N 34°33' E 135°27'0 0.0
2018-Apr-21 19:00N 34°33' E 135°27'0 0.0
2018-Apr-21 18:30N 34°33' E 135°27'0 0.0
2018-Apr-21 18:00N 34°33' E 135°27'0 0.0
2018-Apr-21 17:31N 34°33' E 135°27'0 0.0
2018-Apr-21 17:00N 34°33' E 135°27'0 0.0
2018-Apr-21 16:30N 34°33' E 135°27'0 0.0
2018-Apr-21 16:00N 34°33' E 135°27'0 0.0
2018-Apr-21 15:30N 34°33' E 135°27'0 0.0
2018-Apr-21 15:00N 34°33' E 135°27'0 0.0
2018-Apr-21 14:30N 34°33' E 135°27'0 0.0
2018-Apr-21 14:00N 34°33' E 135°27'0 0.0
2018-Apr-21 13:30N 34°33' E 135°27'0 0.0
2018-Apr-21 13:00N 34°33' E 135°27'0 0.0
2018-Apr-21 12:31N 34°33' E 135°27'0 0.0
2018-Apr-21 12:00N 34°33' E 135°27'0 0.0
2018-Apr-21 11:30N 34°33' E 135°27'0 0.0
2018-Apr-21 11:00N 34°33' E 135°27'0 0.0
2018-Apr-21 10:30N 34°33' E 135°27'3 5.5
2018-Apr-21 10:00N 34°34' E 135°24'5 9.1
2018-Apr-21 09:30N 34°39' E 135°26'0 0.2
2018-Apr-21 09:00N 34°39' E 135°26'3 6.1
2018-Apr-21 08:30N 34°36' E 135°24'4 7.5
2018-Apr-21 08:00N 34°33' E 135°27'0 0.0
2018-Apr-21 07:30N 34°33' E 135°27'0 0.0
2018-Apr-21 07:00N 34°33' E 135°27'0 0.0
2018-Apr-21 06:30N 34°33' E 135°27'0 0.0
2018-Apr-21 06:00N 34°33' E 135°27'0 0.0
2018-Apr-21 05:30N 34°33' E 135°27'0 0.0
2018-Apr-21 05:00N 34°33' E 135°27'0 0.0
2018-Apr-21 04:30N 34°33' E 135°27'0 0.0
2018-Apr-21 04:00N 34°33' E 135°27'0 0.0
2018-Apr-21 03:30N 34°33' E 135°27'0 0.0
2018-Apr-21 03:00N 34°33' E 135°27'0 0.0
2018-Apr-21 02:30N 34°33' E 135°27'0 0.0
2018-Apr-21 02:00N 34°33' E 135°27'0 0.0
2018-Apr-21 01:30N 34°33' E 135°27'0 0.0
2018-Apr-21 01:00N 34°33' E 135°27'0 0.0
2018-Apr-21 00:30N 34°33' E 135°27'0 0.0
2018-Apr-21 00:00N 34°33' E 135°27'1 2.6
2018-Apr-20 23:30N 34°34' E 135°25'1 2.3
2018-Apr-20 23:00N 34°33' E 135°24'0 0.5
2018-Apr-20 22:30N 34°34' E 135°24'2 4.5
2018-Apr-20 22:00N 34°33' E 135°27'0 0.0
2018-Apr-20 21:30N 34°33' E 135°27'0 0.0
2018-Apr-20 21:00N 34°33' E 135°27'0 0.0
2018-Apr-20 20:30N 34°33' E 135°27'0 0.0
2018-Apr-20 20:00N 34°33' E 135°27'0 0.0
2018-Apr-20 19:30N 34°33' E 135°27'0 0.0
2018-Apr-20 19:00N 34°33' E 135°27'0 0.0
2018-Apr-20 18:30N 34°33' E 135°27'0 0.0
2018-Apr-20 18:00N 34°33' E 135°27'0 0.0
2018-Apr-20 17:30N 34°33' E 135°27'0 0.0
2018-Apr-20 17:00N 34°33' E 135°27'0 0.0
2018-Apr-20 16:30N 34°33' E 135°27'0 0.0
2018-Apr-20 16:00N 34°33' E 135°27'0 0.0
2018-Apr-20 15:30N 34°33' E 135°27'0 0.0
2018-Apr-20 15:00N 34°33' E 135°27'0 0.0
2018-Apr-20 14:30N 34°33' E 135°27'0 0.0
2018-Apr-20 14:00N 34°33' E 135°27'0 0.0
2018-Apr-20 13:30N 34°33' E 135°27'0 0.0
2018-Apr-20 13:00N 34°33' E 135°27'0 0.0
2018-Apr-20 12:30N 34°33' E 135°27'0 0.0
2018-Apr-20 12:00N 34°33' E 135°27'0 0.0
2018-Apr-20 11:30N 34°33' E 135°27'0 0.0
2018-Apr-20 11:00N 34°33' E 135°27'0 0.0
2018-Apr-20 10:30N 34°33' E 135°27'0 0.0
2018-Apr-20 10:00N 34°33' E 135°27'0 0.0
2018-Apr-20 09:30N 34°33' E 135°27'1 2.7
2018-Apr-20 09:00N 34°33' E 135°25'0 0.1
2018-Apr-20 08:30N 34°33' E 135°25'0 0.1
2018-Apr-20 08:00N 34°33' E 135°25'1 1.4
2018-Apr-20 07:31N 34°33' E 135°25'4 7.1
2018-Apr-20 07:00N 34°33' E 135°21'1 1.5
2018-Apr-20 06:30N 34°34' E 135°21'3 6.0
2018-Apr-20 06:00N 34°36' E 135°24'0 0.0
2018-Apr-20 05:30N 34°36' E 135°24'0 0.0
2018-Apr-20 05:00N 34°36' E 135°24'0 0.0
2018-Apr-20 04:30N 34°36' E 135°24'0 0.0
2018-Apr-20 04:00N 34°36' E 135°24'0 0.0
2018-Apr-20 03:30N 34°36' E 135°24'0 0.0
2018-Apr-20 02:59N 34°36' E 135°24'0 0.0
2018-Apr-20 02:30N 34°36' E 135°24'0 0.0
2018-Apr-20 02:00N 34°36' E 135°24'0 0.0
2018-Apr-20 01:30N 34°36' E 135°24'0 0.0
2018-Apr-20 01:00N 34°36' E 135°24'0 0.0
2018-Apr-20 00:30N 34°36' E 135°24'0 0.0
2018-Apr-20 00:00N 34°36' E 135°24'3 5.2
2018-Apr-19 23:30N 34°33' E 135°25'1 2.1
2018-Apr-19 23:00N 34°33' E 135°25'2 4.0
2018-Apr-19 22:31N 34°33' E 135°23'3 5.1
2018-Apr-19 22:01N 34°33' E 135°26'0 0.7
2018-Apr-19 21:30N 34°33' E 135°27'0 0.0
2018-Apr-19 21:00N 34°33' E 135°27'0 0.0
2018-Apr-19 20:30N 34°33' E 135°27'0 0.0
2018-Apr-19 20:00N 34°33' E 135°27'0 0.0
2018-Apr-19 19:30N 34°33' E 135°27'0 0.0
2018-Apr-19 19:00N 34°33' E 135°27'0 0.0
2018-Apr-19 18:30N 34°33' E 135°27'0 0.0
2018-Apr-19 18:00N 34°33' E 135°27'0 0.0
2018-Apr-19 17:30N 34°33' E 135°27'0 0.0
2018-Apr-19 17:00N 34°33' E 135°27'0 0.0
2018-Apr-19 16:30N 34°33' E 135°27'0 0.0
2018-Apr-19 16:00N 34°33' E 135°27'0 0.0
2018-Apr-19 15:30N 34°33' E 135°27'0 0.0
2018-Apr-19 15:00N 34°33' E 135°27'0 0.0
2018-Apr-19 14:30N 34°33' E 135°27'0 0.0
2018-Apr-19 14:00N 34°33' E 135°27'0 0.0
2018-Apr-19 13:30N 34°33' E 135°27'0 0.0
2018-Apr-19 13:00N 34°33' E 135°27'0 0.0
2018-Apr-19 12:30N 34°33' E 135°27'0 0.0
2018-Apr-19 12:00N 34°33' E 135°27'0 0.0
2018-Apr-19 11:30N 34°33' E 135°27'0 0.0
2018-Apr-19 11:00N 34°33' E 135°27'0 0.0
2018-Apr-19 10:30N 34°33' E 135°27'0 0.0
2018-Apr-19 10:00N 34°33' E 135°27'0 0.0
2018-Apr-19 09:30N 34°33' E 135°27'0 0.0
2018-Apr-19 09:00N 34°33' E 135°27'0 0.0
2018-Apr-19 08:30N 34°33' E 135°27'0 0.0
2018-Apr-19 08:00N 34°33' E 135°27'0 0.0
2018-Apr-19 07:30N 34°33' E 135°27'0 0.0
2018-Apr-19 07:00N 34°33' E 135°27'0 0.0
2018-Apr-19 06:30N 34°33' E 135°27'0 0.0
2018-Apr-19 06:00N 34°33' E 135°27'0 0.0
2018-Apr-19 05:30N 34°33' E 135°27'0 0.0
2018-Apr-19 05:00N 34°33' E 135°27'0 0.0
2018-Apr-19 04:30N 34°33' E 135°27'0 0.0
2018-Apr-19 04:00N 34°33' E 135°27'0 0.0
2018-Apr-19 03:30N 34°33' E 135°27'0 0.0
2018-Apr-19 03:00N 34°33' E 135°27'0 0.0
2018-Apr-19 02:30N 34°33' E 135°27'0 0.0
2018-Apr-19 02:00N 34°33' E 135°27'0 0.0
2018-Apr-19 01:30N 34°33' E 135°27'0 0.0
2018-Apr-19 01:00N 34°33' E 135°27'0 0.0
2018-Apr-19 00:30N 34°33' E 135°27'0 0.0
2018-Apr-19 00:00N 34°33' E 135°27'0 0.0
2018-Apr-18 23:30N 34°33' E 135°27'0 0.0
2018-Apr-18 23:00N 34°33' E 135°27'0 0.0
2018-Apr-18 22:30N 34°33' E 135°27'0 0.0
2018-Apr-18 22:00N 34°33' E 135°27'0 0.0
2018-Apr-18 21:30N 34°33' E 135°27'0 0.0
2018-Apr-18 21:00N 34°33' E 135°27'0 0.0
2018-Apr-18 20:30N 34°33' E 135°27'0 0.0
2018-Apr-18 20:00N 34°33' E 135°27'0 0.0
2018-Apr-18 19:30N 34°33' E 135°27'0 0.0
2018-Apr-18 19:00N 34°33' E 135°27'0 0.0
2018-Apr-18 18:30N 34°33' E 135°27'0 0.0
2018-Apr-18 18:00N 34°33' E 135°27'0 0.0
2018-Apr-18 17:30N 34°33' E 135°27'0 0.0
2018-Apr-18 17:00N 34°33' E 135°27'0 0.0
2018-Apr-18 16:30N 34°33' E 135°27'0 0.0
2018-Apr-18 16:00N 34°33' E 135°27'0 0.0
2018-Apr-18 15:30N 34°33' E 135°27'0 0.0
2018-Apr-18 15:00N 34°33' E 135°27'0 0.0
2018-Apr-18 14:30N 34°33' E 135°27'0 0.0
2018-Apr-18 14:00N 34°33' E 135°27'0 0.0
2018-Apr-18 13:30N 34°33' E 135°27'0 0.0
2018-Apr-18 13:00N 34°33' E 135°27'0 0.0
2018-Apr-18 12:30N 34°33' E 135°27'0 0.0
2018-Apr-18 12:00N 34°33' E 135°27'0 0.0
2018-Apr-18 11:30N 34°33' E 135°27'0 0.0
2018-Apr-18 11:00N 34°33' E 135°27'0 0.0
2018-Apr-18 10:30N 34°33' E 135°27'0 0.0
2018-Apr-18 10:00N 34°33' E 135°27'0 0.0
2018-Apr-18 09:30N 34°33' E 135°27'0 0.0
2018-Apr-18 09:00N 34°33' E 135°27'0 0.0
2018-Apr-18 08:30N 34°33' E 135°27'0 0.0
2018-Apr-18 08:00N 34°33' E 135°27'0 0.0
2018-Apr-18 07:30N 34°33' E 135°27'0 0.0
2018-Apr-18 07:00N 34°33' E 135°27'0 0.0
2018-Apr-18 06:30N 34°33' E 135°27'0 0.0
2018-Apr-18 06:00N 34°33' E 135°27'0 0.0
2018-Apr-18 05:30N 34°33' E 135°27'0 0.0
2018-Apr-18 05:00N 34°33' E 135°27'0 0.0
2018-Apr-18 04:30N 34°33' E 135°27'0 0.0
2018-Apr-18 04:00N 34°33' E 135°27'0 0.0
2018-Apr-18 03:30N 34°33' E 135°27'0 0.0
2018-Apr-18 03:00N 34°33' E 135°27'0 0.0
2018-Apr-18 02:30N 34°33' E 135°27'0 0.0
2018-Apr-18 02:00N 34°33' E 135°27'0 0.0
2018-Apr-18 01:30N 34°33' E 135°27'0 0.0
2018-Apr-18 01:00N 34°33' E 135°27'0 0.0
2018-Apr-18 00:30N 34°33' E 135°27'0 0.0
2018-Apr-18 00:00N 34°33' E 135°27'0 0.0
2018-Apr-17 23:30N 34°33' E 135°27'0 0.0
2018-Apr-17 23:00N 34°33' E 135°27'0 0.0
2018-Apr-17 22:30N 34°33' E 135°27'0 0.0
2018-Apr-17 22:00N 34°33' E 135°27'0 0.0
2018-Apr-17 21:30N 34°33' E 135°27'0 0.0
2018-Apr-17 21:00N 34°33' E 135°27'0 0.0
2018-Apr-17 20:30N 34°33' E 135°27'0 0.0
2018-Apr-17 20:00N 34°33' E 135°27'0 0.0
2018-Apr-17 19:30N 34°33' E 135°27'0 0.0
2018-Apr-17 19:00N 34°33' E 135°27'0 0.0
2018-Apr-17 18:30N 34°33' E 135°27'0 0.0
2018-Apr-17 18:00N 34°33' E 135°27'0 0.0
2018-Apr-17 17:30N 34°33' E 135°27'0 0.0
2018-Apr-17 17:00N 34°33' E 135°27'0 0.0
2018-Apr-17 16:30N 34°33' E 135°27'0 0.0
2018-Apr-17 15:59N 34°33' E 135°27'0 0.0
2018-Apr-17 15:30N 34°33' E 135°27'0 0.0
2018-Apr-17 14:59N 34°33' E 135°27'0 0.0
2018-Apr-17 14:30N 34°33' E 135°27'0 0.0
2018-Apr-17 14:00N 34°33' E 135°27'0 0.0
2018-Apr-17 13:30N 34°33' E 135°27'0 0.0
2018-Apr-17 13:00N 34°33' E 135°27'0 0.0
2018-Apr-17 12:30N 34°33' E 135°27'0 0.0
2018-Apr-17 12:00N 34°33' E 135°27'0 0.0
2018-Apr-17 11:30N 34°33' E 135°27'0 0.0
2018-Apr-17 11:00N 34°33' E 135°27'0 0.0
2018-Apr-17 10:30N 34°33' E 135°27'0 0.0
2018-Apr-17 10:00N 34°33' E 135°27'0 0.0
2018-Apr-17 09:30N 34°33' E 135°27'0 0.0
2018-Apr-17 09:00N 34°33' E 135°27'0 0.0
2018-Apr-17 08:30N 34°33' E 135°27'0 0.0
2018-Apr-17 08:00N 34°33' E 135°27'0 0.0
2018-Apr-17 07:30N 34°33' E 135°27'0 0.0
2018-Apr-17 07:00N 34°33' E 135°27'0 0.0
2018-Apr-17 06:30N 34°33' E 135°27'0 0.0
2018-Apr-17 06:00N 34°33' E 135°27'0 0.0
2018-Apr-17 05:30N 34°33' E 135°27'1 2.5
2018-Apr-17 05:00N 34°33' E 135°25'0 0.8
2018-Apr-17 04:30N 34°33' E 135°26'1 1.8
2018-Apr-17 04:00N 34°33' E 135°27'0 0.0
2018-Apr-17 03:30N 34°33' E 135°27'0 0.0
2018-Apr-17 03:00N 34°33' E 135°27'0 0.0
2018-Apr-17 02:30N 34°33' E 135°27'0 0.0
2018-Apr-17 02:00N 34°33' E 135°27'0 0.0
2018-Apr-17 01:30N 34°33' E 135°27'0 0.0
2018-Apr-17 01:00N 34°33' E 135°27'0 0.0
2018-Apr-17 00:30N 34°33' E 135°27'0 0.0
2018-Apr-17 00:00N 34°33' E 135°27'0 0.0
2018-Apr-16 23:30N 34°33' E 135°27'0 0.0
2018-Apr-16 23:00N 34°33' E 135°27'0 0.0
2018-Apr-16 22:30N 34°33' E 135°27'0 0.0
2018-Apr-16 22:00N 34°33' E 135°27'0 0.0
2018-Apr-16 21:30N 34°33' E 135°27'0 0.0
2018-Apr-16 21:00N 34°33' E 135°27'0 0.0
2018-Apr-16 20:30N 34°33' E 135°27'0 0.0
2018-Apr-16 20:00N 34°33' E 135°27'0 0.0
2018-Apr-16 19:30N 34°33' E 135°27'0 0.0
2018-Apr-16 19:00N 34°33' E 135°27'0 0.0
2018-Apr-16 18:30N 34°33' E 135°27'0 0.0
2018-Apr-16 18:00N 34°33' E 135°27'0 0.0
2018-Apr-16 17:30N 34°33' E 135°27'0 0.0
2018-Apr-16 17:00N 34°33' E 135°27'0 0.0
2018-Apr-16 16:29N 34°33' E 135°27'0 0.0
2018-Apr-16 16:00N 34°33' E 135°27'0 0.0
2018-Apr-16 15:30N 34°33' E 135°27'0 0.0
2018-Apr-16 15:00N 34°33' E 135°27'0 0.0
2018-Apr-16 14:30N 34°33' E 135°27'0 0.0
2018-Apr-16 14:00N 34°33' E 135°27'0 0.0
2018-Apr-16 13:30N 34°33' E 135°27'0 0.0
2018-Apr-16 13:00N 34°33' E 135°27'0 0.0
2018-Apr-16 12:30N 34°33' E 135°27'0 0.0
2018-Apr-16 12:00N 34°33' E 135°27'0 0.0
2018-Apr-16 11:30N 34°33' E 135°27'  

Dump ship's entire track history